createdAt,value
2022-08-18T00:00:53.849Z,21.58
2022-08-18T00:02:30.146Z,21.57
2022-08-18T00:03:01.012Z,21.56
2022-08-18T00:04:03.050Z,21.55
2022-08-18T00:05:00.785Z,21.54
2022-08-18T00:06:02.549Z,21.53
2022-08-18T00:07:35.864Z,21.51
2022-08-18T00:08:05.979Z,21.5
2022-08-18T00:09:07.741Z,21.48
2022-08-18T00:10:18.811Z,21.47
2022-08-18T00:11:11.202Z,21.45
2022-08-18T00:12:16.011Z,21.43
2022-08-18T00:13:14.663Z,21.42
2022-08-18T00:14:22.420Z,21.4
2022-08-18T00:15:18.134Z,21.38
2022-08-18T00:16:19.877Z,21.37
2022-08-18T00:17:37.204Z,21.35
2022-08-18T00:18:23.327Z,21.34
2022-08-18T00:19:43.639Z,21.32
2022-08-18T00:20:26.853Z,21.3
2022-08-18T00:23:01.823Z,21.27
2022-08-18T00:23:32.019Z,21.25
2022-08-18T00:24:34.094Z,21.24
2022-08-18T00:25:35.470Z,21.22
2022-08-18T00:26:48.751Z,21.2
2022-08-18T00:27:39.086Z,21.18
2022-08-18T00:28:40.670Z,21.17
2022-08-18T00:29:42.427Z,21.17
2022-08-18T00:30:44.215Z,21.16
2022-08-18T00:32:17.343Z,21.14
2022-08-18T00:32:47.832Z,21.13
2022-08-18T00:33:49.518Z,21.11
2022-08-18T00:34:51.239Z,21.1
2022-08-18T00:35:52.872Z,21.09
2022-08-18T00:37:31.192Z,21.08
2022-08-18T00:37:56.322Z,21.06
2022-08-18T00:38:58.184Z,21.06
2022-08-18T00:39:59.842Z,21.04
2022-08-18T00:41:01.748Z,21.03
2022-08-18T00:42:34.806Z,21.01
2022-08-18T00:43:04.998Z,21.01
2022-08-18T00:44:06.847Z,20.99
2022-08-18T00:45:08.616Z,20.98
2022-08-18T00:46:10.243Z,20.97
2022-08-18T00:47:43.550Z,20.97
2022-08-18T00:48:13.682Z,20.96
2022-08-18T00:49:15.472Z,20.95
2022-08-18T00:50:17.148Z,20.94
2022-08-18T00:51:18.978Z,20.94
2022-08-18T00:52:27.961Z,20.92
2022-08-18T00:53:22.400Z,20.92
2022-08-18T00:54:24.126Z,20.89
2022-08-18T00:55:26.401Z,20.88
2022-08-18T00:57:29.387Z,20.87
2022-08-18T00:57:31.584Z,20.88
2022-08-18T00:58:31.304Z,20.88
2022-08-18T00:59:32.790Z,20.87
2022-08-18T01:00:34.780Z,20.86
2022-08-18T01:02:07.807Z,20.86
2022-08-18T01:02:38.200Z,20.85
2022-08-18T01:03:40.153Z,20.85
2022-08-18T01:04:42.353Z,20.85
2022-08-18T01:05:43.441Z,20.84
2022-08-18T01:07:47.027Z,20.83
2022-08-18T01:07:50.348Z,20.83
2022-08-18T01:08:48.506Z,20.83
2022-08-18T01:09:50.383Z,20.82
2022-08-18T01:10:52.118Z,20.81
2022-08-18T01:12:55.618Z,20.79
2022-08-18T01:12:59.319Z,20.8
2022-08-18T01:13:57.183Z,20.78
2022-08-18T01:14:59.058Z,20.77
2022-08-18T01:16:00.729Z,20.75
2022-08-18T01:17:33.752Z,20.75
2022-08-18T01:18:04.268Z,20.73
2022-08-18T01:19:05.886Z,20.72
2022-08-18T01:20:07.653Z,20.71
2022-08-18T01:21:09.514Z,20.69
2022-08-18T01:22:42.485Z,20.67
2022-08-18T01:23:13.054Z,20.66
2022-08-18T01:24:17.484Z,20.63
2022-08-18T01:25:16.311Z,20.62
2022-08-18T01:26:18.135Z,20.6
2022-08-18T01:28:21.814Z,20.55
2022-08-18T01:28:25.018Z,20.58
2022-08-18T01:29:23.321Z,20.54
2022-08-18T01:30:24.867Z,20.53
2022-08-18T01:31:26.743Z,20.51
2022-08-18T01:33:30.474Z,20.48
2022-08-18T01:33:32.226Z,20.5
2022-08-18T01:34:32.094Z,20.47
2022-08-18T01:35:41.577Z,20.46
2022-08-18T01:37:47.129Z,20.43
2022-08-18T01:38:38.995Z,20.4
2022-08-18T01:41:22.318Z,20.4
2022-08-18T01:41:27.813Z,20.37
2022-08-18T01:42:45.839Z,20.33
2022-08-18T01:43:47.454Z,20.31
2022-08-18T01:44:49.155Z,20.28
2022-08-18T01:45:51.217Z,20.27
2022-08-18T01:47:54.689Z,20.23
2022-08-18T01:47:56.469Z,20.24
2022-08-18T01:48:56.144Z,20.22
2022-08-18T01:49:58.090Z,20.21
2022-08-18T01:50:59.779Z,20.19
2022-08-18T01:53:03.355Z,20.17
2022-08-18T01:53:05.724Z,20.18
2022-08-18T01:54:05.022Z,20.16
2022-08-18T01:55:06.640Z,20.16
2022-08-18T01:56:08.279Z,20.15
2022-08-18T01:58:12.175Z,20.14
2022-08-18T01:58:14.962Z,20.14
2022-08-18T01:59:13.629Z,20.14
2022-08-18T02:00:15.683Z,20.14
2022-08-18T02:01:17.588Z,20.13
2022-08-18T02:03:20.721Z,20.13
2022-08-18T02:03:24.217Z,20.12
2022-08-18T02:04:34.896Z,20.13
2022-08-18T02:05:24.444Z,20.13
2022-08-18T02:06:32.207Z,20.13
2022-08-18T02:08:29.347Z,20.13
2022-08-18T02:08:31.419Z,20.13
2022-08-18T02:09:30.898Z,20.12
2022-08-18T02:10:32.752Z,20.12
2022-08-18T02:12:51.512Z,20.12
2022-08-18T02:13:38.027Z,20.11
2022-08-18T02:14:39.751Z,20.11
2022-08-18T02:15:41.959Z,20.1
2022-08-18T02:17:44.928Z,20.11
2022-08-18T02:17:48.472Z,20.1
2022-08-18T02:18:47.394Z,20.11
2022-08-18T02:19:48.243Z,20.1
2022-08-18T02:20:50.246Z,20.1
2022-08-18T02:23:00.791Z,20.09
2022-08-18T02:23:55.390Z,20.1
2022-08-18T02:24:56.973Z,20.08
2022-08-18T02:25:58.723Z,20.09
2022-08-18T02:28:02.531Z,20.08
2022-08-18T02:28:04.933Z,20.09
2022-08-18T02:29:04.074Z,20.09
2022-08-18T02:30:05.975Z,20.09
2022-08-18T02:31:12.285Z,20.09
2022-08-18T02:33:18.004Z,20.11
2022-08-18T02:34:13.116Z,20.11
2022-08-18T02:35:14.595Z,20.12
2022-08-18T02:36:16.655Z,20.13
2022-08-18T02:38:20.496Z,20.14
2022-08-18T02:38:23.425Z,20.14
2022-08-18T02:39:21.696Z,20.15
2022-08-18T02:40:23.485Z,20.16
2022-08-18T02:41:25.488Z,20.17
2022-08-18T02:42:57.854Z,20.18
2022-08-18T02:43:28.506Z,20.19
2022-08-18T02:44:30.319Z,20.2
2022-08-18T02:45:32.802Z,20.21
2022-08-18T02:47:05.413Z,20.23
2022-08-18T02:47:35.554Z,20.24
2022-08-18T02:48:37.411Z,20.25
2022-08-18T02:49:39.150Z,20.25
2022-08-18T02:50:40.892Z,20.26
2022-08-18T02:52:46.142Z,20.28
2022-08-18T02:52:51.772Z,20.27
2022-08-18T02:53:45.477Z,20.3
2022-08-18T02:57:05.686Z,20.32
2022-08-18T02:57:52.862Z,20.33
2022-08-18T02:58:54.372Z,20.34
2022-08-18T02:59:56.061Z,20.35
2022-08-18T03:00:57.907Z,20.36
2022-08-18T03:01:59.570Z,20.36
2022-08-18T03:03:01.476Z,20.36
2022-08-18T03:04:03.070Z,20.36
2022-08-18T03:05:04.767Z,20.37
2022-08-18T03:06:06.506Z,20.36
2022-08-18T03:07:08.068Z,20.37
2022-08-18T03:08:09.795Z,20.38
2022-08-18T03:09:11.733Z,20.37
2022-08-18T03:10:31.407Z,20.37
2022-08-18T03:11:15.108Z,20.38
2022-08-18T03:12:16.808Z,20.38
2022-08-18T03:13:18.564Z,20.37
2022-08-18T03:14:20.398Z,20.37
2022-08-18T03:15:22.082Z,20.38
2022-08-18T03:16:23.679Z,20.38
2022-08-18T03:17:25.404Z,20.37
2022-08-18T03:18:27.227Z,20.35
2022-08-18T03:19:29.115Z,20.34
2022-08-18T03:20:31.562Z,20.33
2022-08-18T03:21:32.560Z,20.33
2022-08-18T03:22:34.092Z,20.32
2022-08-18T03:23:35.845Z,20.31
2022-08-18T03:24:37.640Z,20.3
2022-08-18T03:25:39.367Z,20.28
2022-08-18T03:26:41.265Z,20.28
2022-08-18T03:27:42.885Z,20.26
2022-08-18T03:28:44.655Z,20.25
2022-08-18T03:29:46.166Z,20.24
2022-08-18T03:30:48.012Z,20.23
2022-08-18T03:31:49.843Z,20.22
2022-08-18T03:32:51.798Z,20.2
2022-08-18T03:33:53.210Z,20.19
2022-08-18T03:34:55.153Z,20.17
2022-08-18T03:35:56.683Z,20.16
2022-08-18T03:36:58.464Z,20.15
2022-08-18T03:38:00.328Z,20.13
2022-08-18T03:39:01.984Z,20.12
2022-08-18T03:40:03.780Z,20.09
2022-08-18T03:41:05.542Z,20.08
2022-08-18T03:42:07.145Z,20.07
2022-08-18T03:43:50.268Z,20.04
2022-08-18T03:44:10.640Z,20.03
2022-08-18T03:45:13.208Z,20
2022-08-18T03:46:14.137Z,19.98
2022-08-18T03:47:15.886Z,19.97
2022-08-18T03:48:17.407Z,19.95
2022-08-18T03:49:19.330Z,19.94
2022-08-18T03:50:21.000Z,19.93
2022-08-18T03:51:22.668Z,19.92
2022-08-18T03:52:24.428Z,19.91
2022-08-18T03:53:26.281Z,19.89
2022-08-18T03:54:27.823Z,19.88
2022-08-18T03:55:29.742Z,19.88
2022-08-18T03:56:31.768Z,19.86
2022-08-18T03:57:33.146Z,19.85
2022-08-18T03:58:34.979Z,19.84
2022-08-18T03:59:36.519Z,19.84
2022-08-18T04:00:38.396Z,19.83
2022-08-18T04:01:40.234Z,19.82
2022-08-18T04:02:41.891Z,19.8
2022-08-18T04:03:43.611Z,19.8
2022-08-18T04:04:45.249Z,19.81
2022-08-18T04:05:47.169Z,19.8
2022-08-18T04:06:48.816Z,19.79
2022-08-18T04:07:50.681Z,19.8
2022-08-18T04:08:52.251Z,19.8
2022-08-18T04:09:54.027Z,19.79
2022-08-18T04:10:55.688Z,19.79
2022-08-18T04:11:57.444Z,19.8
2022-08-18T04:12:59.194Z,19.79
2022-08-18T04:14:00.835Z,19.79
2022-08-18T04:15:02.722Z,19.8
2022-08-18T04:16:04.336Z,19.8
2022-08-18T04:17:06.259Z,19.8
2022-08-18T04:18:08.317Z,19.81
2022-08-18T04:19:09.577Z,19.81
2022-08-18T04:20:11.322Z,19.8
2022-08-18T04:21:13.026Z,19.81
2022-08-18T04:22:17.167Z,19.81
2022-08-18T04:23:16.665Z,19.81
2022-08-18T04:24:18.300Z,19.8
2022-08-18T04:25:20.052Z,19.8
2022-08-18T04:26:21.791Z,19.8
2022-08-18T04:27:23.474Z,19.79
2022-08-18T04:28:25.308Z,19.8
2022-08-18T04:29:27.034Z,19.8
2022-08-18T04:30:28.790Z,19.8
2022-08-18T04:31:30.609Z,19.8
2022-08-18T04:32:32.242Z,19.8
2022-08-18T04:33:33.997Z,19.8
2022-08-18T04:34:35.609Z,19.8
2022-08-18T04:35:37.428Z,19.8
2022-08-18T04:36:39.130Z,19.8
2022-08-18T04:37:50.168Z,19.8
2022-08-18T04:38:42.642Z,19.8
2022-08-18T04:39:44.591Z,19.8
2022-08-18T04:40:46.073Z,19.81
2022-08-18T04:41:47.808Z,19.81
2022-08-18T04:42:49.483Z,19.8
2022-08-18T04:43:51.303Z,19.8
2022-08-18T04:44:52.995Z,19.81
2022-08-18T04:45:54.738Z,19.81
2022-08-18T04:46:56.482Z,19.82
2022-08-18T04:47:58.145Z,19.82
2022-08-18T04:48:59.903Z,19.82
2022-08-18T04:50:01.714Z,19.82
2022-08-18T04:51:04.248Z,19.82
2022-08-18T04:52:34.571Z,19.83
2022-08-18T04:53:06.793Z,19.83
2022-08-18T04:54:08.597Z,19.83
2022-08-18T04:55:10.430Z,19.83
2022-08-18T04:56:12.433Z,19.83
2022-08-18T04:57:13.752Z,19.83
2022-08-18T04:58:15.571Z,19.83
2022-08-18T04:59:17.327Z,19.83
2022-08-18T05:00:18.966Z,19.83
2022-08-18T05:01:20.742Z,19.83
2022-08-18T05:02:22.571Z,19.83
2022-08-18T05:03:24.154Z,19.83
2022-08-18T05:04:25.744Z,19.84
2022-08-18T05:05:27.871Z,19.84
2022-08-18T05:06:29.404Z,19.84
2022-08-18T05:07:31.273Z,19.84
2022-08-18T05:08:32.982Z,19.85
2022-08-18T05:09:41.385Z,19.85
2022-08-18T05:10:36.440Z,19.86
2022-08-18T05:11:37.849Z,19.85
2022-08-18T05:12:39.847Z,19.86
2022-08-18T05:13:41.529Z,19.86
2022-08-18T05:14:43.287Z,19.86
2022-08-18T05:16:08.984Z,19.86
2022-08-18T05:16:48.976Z,19.86
2022-08-18T05:17:50.696Z,19.87
2022-08-18T05:18:50.303Z,19.87
2022-08-18T05:19:52.075Z,19.87
2022-08-18T05:20:53.723Z,19.87
2022-08-18T05:21:59.572Z,19.87
2022-08-18T05:22:57.210Z,19.85
2022-08-18T05:23:58.863Z,19.86
2022-08-18T05:25:00.784Z,19.85
2022-08-18T05:26:05.273Z,19.84
2022-08-18T05:27:04.089Z,19.84
2022-08-18T05:28:05.876Z,19.84
2022-08-18T05:29:18.458Z,19.84
2022-08-18T05:30:09.278Z,19.83
2022-08-18T05:31:13.831Z,19.83
2022-08-18T05:32:40.980Z,19.83
2022-08-18T05:33:14.466Z,19.83
2022-08-18T05:34:16.361Z,19.82
2022-08-18T05:35:17.949Z,19.82
2022-08-18T05:36:19.716Z,19.81
2022-08-18T05:37:21.513Z,19.82
2022-08-18T05:38:23.217Z,19.82
2022-08-18T05:39:24.758Z,19.81
2022-08-18T05:40:26.763Z,19.8
2022-08-18T05:41:28.497Z,19.8
2022-08-18T05:42:30.388Z,19.8
2022-08-18T05:43:31.948Z,19.81
2022-08-18T05:44:33.600Z,19.79
2022-08-18T05:45:35.313Z,19.8
2022-08-18T05:46:37.129Z,19.79
2022-08-18T05:47:38.885Z,19.78
2022-08-18T05:48:43.192Z,19.79
2022-08-18T05:49:42.648Z,19.78
2022-08-18T05:50:43.980Z,19.78
2022-08-18T05:51:45.835Z,19.78
2022-08-18T05:52:47.559Z,19.77
2022-08-18T05:53:49.336Z,19.76
2022-08-18T05:55:01.659Z,19.76
2022-08-18T05:56:23.989Z,19.76
2022-08-18T05:57:25.701Z,19.75
2022-08-18T05:58:33.132Z,19.76
2022-08-18T05:59:29.198Z,19.76
2022-08-18T06:00:30.836Z,19.76
2022-08-18T06:01:32.500Z,19.76
2022-08-18T06:02:34.406Z,19.77
2022-08-18T06:03:45.325Z,19.77
2022-08-18T06:04:37.855Z,19.77
2022-08-18T06:05:39.617Z,19.77
2022-08-18T06:06:46.940Z,19.77
2022-08-18T06:07:43.054Z,19.76
2022-08-18T06:08:44.711Z,19.76
2022-08-18T06:09:46.613Z,19.76
2022-08-18T06:10:48.161Z,19.76
2022-08-18T06:11:49.960Z,19.75
2022-08-18T06:12:51.706Z,19.76
2022-08-18T06:13:54.204Z,19.76
2022-08-18T06:14:55.188Z,19.76
2022-08-18T06:15:56.847Z,19.75
2022-08-18T06:16:58.532Z,19.75
2022-08-18T06:18:00.334Z,19.75
2022-08-18T06:19:02.254Z,19.77
2022-08-18T06:20:03.875Z,19.76
2022-08-18T06:21:05.647Z,19.76
2022-08-18T06:22:07.299Z,19.77
2022-08-18T06:23:09.020Z,19.78
2022-08-18T06:24:10.780Z,19.79
2022-08-18T06:25:12.938Z,19.8
2022-08-18T06:26:14.231Z,19.81
2022-08-18T06:27:16.016Z,19.82
2022-08-18T06:28:17.794Z,19.82
2022-08-18T06:29:19.176Z,19.84
2022-08-18T06:30:21.281Z,19.85
2022-08-18T06:31:27.482Z,19.86
2022-08-18T06:32:24.735Z,19.86
2022-08-18T06:33:26.398Z,19.87
2022-08-18T06:34:28.150Z,19.86
2022-08-18T06:35:29.892Z,19.87
2022-08-18T06:36:31.626Z,19.87
2022-08-18T06:37:33.399Z,19.88
2022-08-18T06:38:35.085Z,19.89
2022-08-18T06:39:36.944Z,19.89
2022-08-18T06:40:38.557Z,19.89
2022-08-18T06:41:43.145Z,19.9
2022-08-18T06:42:43.431Z,19.9
2022-08-18T06:43:46.690Z,19.9
2022-08-18T06:44:51.143Z,19.9
2022-08-18T06:45:52.950Z,19.91
2022-08-18T06:46:54.674Z,19.91
2022-08-18T06:47:56.413Z,19.89
2022-08-18T06:48:58.184Z,19.9
2022-08-18T06:49:59.818Z,19.89
2022-08-18T06:51:04.790Z,19.89
2022-08-18T06:52:43.164Z,19.88
2022-08-18T06:53:44.340Z,19.88
2022-08-18T06:54:49.508Z,19.88
2022-08-18T06:55:47.951Z,19.88
2022-08-18T06:56:49.576Z,19.88
2022-08-18T06:57:51.614Z,19.89
2022-08-18T06:58:53.369Z,19.89
2022-08-18T06:59:54.944Z,19.89
2022-08-18T07:00:57.424Z,19.89
2022-08-18T07:01:58.630Z,19.89
2022-08-18T07:03:00.180Z,19.89
2022-08-18T07:04:02.762Z,19.89
2022-08-18T07:05:03.944Z,19.89
2022-08-18T07:06:05.255Z,19.88
2022-08-18T07:07:07.137Z,19.88
2022-08-18T07:08:08.705Z,19.88
2022-08-18T07:09:10.568Z,19.88
2022-08-18T07:10:12.258Z,19.88
2022-08-18T07:11:14.037Z,19.88
2022-08-18T07:12:15.685Z,19.88
2022-08-18T07:13:17.396Z,19.89
2022-08-18T07:14:18.918Z,19.89
2022-08-18T07:15:20.759Z,19.91
2022-08-18T07:16:34.508Z,19.91
2022-08-18T07:17:43.076Z,19.92
2022-08-18T07:18:26.065Z,19.93
2022-08-18T07:19:27.698Z,19.93
2022-08-18T07:20:29.531Z,19.94
2022-08-18T07:21:31.270Z,19.95
2022-08-18T07:22:39.004Z,19.96
2022-08-18T07:23:34.569Z,19.97
2022-08-18T07:24:36.475Z,19.98
2022-08-18T07:25:38.102Z,19.99
2022-08-18T07:26:40.035Z,20.01
2022-08-18T07:27:41.622Z,20.02
2022-08-18T07:28:43.446Z,20.01
2022-08-18T07:29:45.185Z,20.03
2022-08-18T07:31:00.432Z,20.03
2022-08-18T07:31:48.591Z,20.04
2022-08-18T07:32:50.367Z,20.04
2022-08-18T07:33:52.070Z,20.05
2022-08-18T07:34:53.797Z,20.07
2022-08-18T07:35:55.594Z,20.08
2022-08-18T07:36:57.308Z,20.11
2022-08-18T07:37:58.942Z,20.12
2022-08-18T07:39:00.678Z,20.13
2022-08-18T07:40:02.624Z,20.15
2022-08-18T07:41:04.223Z,20.16
2022-08-18T07:42:05.871Z,20.16
2022-08-18T07:43:07.699Z,20.18
2022-08-18T07:44:13.720Z,20.19
2022-08-18T07:45:11.202Z,20.19
2022-08-18T07:46:13.187Z,20.21
2022-08-18T07:47:14.575Z,20.21
2022-08-18T07:48:36.983Z,20.22
2022-08-18T07:49:21.884Z,20.23
2022-08-18T07:50:36.224Z,20.24
2022-08-18T07:51:21.534Z,20.27
2022-08-18T07:52:36.195Z,20.28
2022-08-18T07:53:25.026Z,20.28
2022-08-18T07:54:48.398Z,20.3
2022-08-18T07:55:28.477Z,20.32
2022-08-18T07:56:30.265Z,20.33
2022-08-18T07:57:31.966Z,20.34
2022-08-18T07:58:33.662Z,20.35
2022-08-18T07:59:35.319Z,20.36
2022-08-18T08:00:58.693Z,20.37
2022-08-18T08:01:39.428Z,20.38
2022-08-18T08:02:41.179Z,20.39
2022-08-18T08:03:42.613Z,20.4
2022-08-18T08:04:44.891Z,20.41
2022-08-18T08:05:46.056Z,20.42
2022-08-18T08:07:20.305Z,20.42
2022-08-18T08:07:49.311Z,20.44
2022-08-18T08:08:51.018Z,20.44
2022-08-18T08:09:52.943Z,20.45
2022-08-18T08:10:54.487Z,20.45
2022-08-18T08:11:56.231Z,20.46
2022-08-18T08:13:08.363Z,20.48
2022-08-18T08:13:59.684Z,20.5
2022-08-18T08:15:01.485Z,20.52
2022-08-18T08:16:04.016Z,20.53
2022-08-18T08:17:04.911Z,20.54
2022-08-18T08:18:06.527Z,20.56
2022-08-18T08:19:12.336Z,20.57
2022-08-18T08:20:10.138Z,20.58
2022-08-18T08:21:11.923Z,20.6
2022-08-18T08:22:13.560Z,20.62
2022-08-18T08:23:15.389Z,20.63
2022-08-18T08:24:17.078Z,20.65
2022-08-18T08:25:44.594Z,20.67
2022-08-18T08:25:54.581Z,20.67
2022-08-18T08:26:56.170Z,20.68
2022-08-18T08:27:57.909Z,20.7
2022-08-18T08:28:59.678Z,20.71
2022-08-18T08:30:01.425Z,20.74
2022-08-18T08:31:33.217Z,20.75
2022-08-18T08:32:04.863Z,20.76
2022-08-18T08:33:06.791Z,20.77
2022-08-18T08:34:08.437Z,20.77
2022-08-18T08:35:15.584Z,20.77
2022-08-18T08:36:11.819Z,20.78
2022-08-18T08:37:13.532Z,20.8
2022-08-18T08:38:38.729Z,20.79
2022-08-18T08:39:17.016Z,20.81
2022-08-18T08:40:18.809Z,20.81
2022-08-18T08:41:20.489Z,20.83
2022-08-18T08:42:30.638Z,20.84
2022-08-18T08:43:23.931Z,20.85
2022-08-18T08:44:25.753Z,20.87
2022-08-18T08:45:27.406Z,20.89
2022-08-18T08:46:29.160Z,20.9
2022-08-18T08:47:30.862Z,20.91
2022-08-18T08:48:32.612Z,20.92
2022-08-18T08:49:34.374Z,20.93
2022-08-18T08:50:36.126Z,20.95
2022-08-18T08:51:37.839Z,20.96
2022-08-18T08:52:39.549Z,20.99
2022-08-18T08:53:41.266Z,21.01
2022-08-18T08:54:43.143Z,21.02
2022-08-18T08:55:44.850Z,21.04
2022-08-18T08:56:46.494Z,21.06
2022-08-18T08:57:48.274Z,21.06
2022-08-18T08:58:49.942Z,21.07
2022-08-18T08:59:52.069Z,21.08
2022-08-18T09:00:53.424Z,21.09
2022-08-18T09:01:55.282Z,21.09
2022-08-18T09:02:56.911Z,21.1
2022-08-18T09:03:58.958Z,21.1
2022-08-18T09:05:08.178Z,21.11
2022-08-18T09:06:03.281Z,21.11
2022-08-18T09:07:03.870Z,21.11
2022-08-18T09:08:05.546Z,21.11
2022-08-18T09:09:07.290Z,21.12
2022-08-18T09:10:09.207Z,21.12
2022-08-18T09:11:10.751Z,21.12
2022-08-18T09:12:12.656Z,21.12
2022-08-18T09:13:14.235Z,21.12
2022-08-18T09:14:36.686Z,21.13
2022-08-18T09:15:40.789Z,21.13
2022-08-18T09:16:42.508Z,21.13
2022-08-18T09:17:44.262Z,21.13
2022-08-18T09:18:46.134Z,21.13
2022-08-18T09:19:47.714Z,21.14
2022-08-18T09:21:04.903Z,21.14
2022-08-18T09:22:06.661Z,21.14
2022-08-18T09:23:08.385Z,21.14
2022-08-18T09:24:10.278Z,21.15
2022-08-18T09:25:11.876Z,21.14
2022-08-18T09:26:13.572Z,21.13
2022-08-18T09:27:15.352Z,21.14
2022-08-18T09:28:17.118Z,21.14
2022-08-18T09:29:18.770Z,21.13
2022-08-18T09:30:20.517Z,21.14
2022-08-18T09:31:22.403Z,21.13
2022-08-18T09:32:24.252Z,21.13
2022-08-18T09:33:25.719Z,21.13
2022-08-18T09:34:27.519Z,21.12
2022-08-18T09:35:29.187Z,21.12
2022-08-18T09:36:31.060Z,21.13
2022-08-18T09:37:32.653Z,21.14
2022-08-18T09:38:34.526Z,21.14
2022-08-18T09:39:36.259Z,21.13
2022-08-18T09:41:01.099Z,21.15
2022-08-18T09:41:38.495Z,21.15
2022-08-18T09:42:49.753Z,21.16
2022-08-18T09:43:41.971Z,21.17
2022-08-18T09:44:43.694Z,21.18
2022-08-18T09:45:45.436Z,21.19
2022-08-18T09:46:47.164Z,21.21
2022-08-18T09:47:48.963Z,21.22
2022-08-18T09:48:50.647Z,21.23
2022-08-18T09:49:53.179Z,21.25
2022-08-18T09:50:54.112Z,21.26
2022-08-18T09:51:55.907Z,21.27
2022-08-18T09:52:57.742Z,21.28
2022-08-18T09:53:59.322Z,21.28
2022-08-18T09:55:01.032Z,21.3
2022-08-18T09:56:05.439Z,21.32
2022-08-18T09:57:05.208Z,21.33
2022-08-18T09:58:06.246Z,21.35
2022-08-18T09:59:10.841Z,21.38
2022-08-18T10:00:09.710Z,21.39
2022-08-18T10:01:11.525Z,21.42
2022-08-18T10:02:20.110Z,21.43
2022-08-18T10:03:15.102Z,21.46
2022-08-18T10:04:21.767Z,21.48
2022-08-18T10:05:18.393Z,21.5
2022-08-18T10:06:20.709Z,21.52
2022-08-18T10:07:21.851Z,21.55
2022-08-18T10:08:24.115Z,21.56
2022-08-18T10:09:36.005Z,21.59
2022-08-18T10:11:01.802Z,21.62
2022-08-18T10:11:28.812Z,21.64
2022-08-18T10:12:30.573Z,21.66
2022-08-18T10:13:32.274Z,21.68
2022-08-18T10:14:34.007Z,21.7
2022-08-18T10:15:35.725Z,21.71
2022-08-18T10:17:04.945Z,21.74
2022-08-18T10:17:39.273Z,21.76
2022-08-18T10:18:40.943Z,21.78
2022-08-18T10:19:42.681Z,21.8
2022-08-18T10:20:44.408Z,21.8
2022-08-18T10:21:46.225Z,21.81
2022-08-18T10:22:47.897Z,21.83
2022-08-18T10:23:58.133Z,21.85
2022-08-18T10:24:51.468Z,21.87
2022-08-18T10:25:53.080Z,21.88
2022-08-18T10:26:55.338Z,21.9
2022-08-18T10:27:56.748Z,21.92
2022-08-18T10:28:58.298Z,21.94
2022-08-18T10:30:00.144Z,21.97
2022-08-18T10:31:06.291Z,21.98
2022-08-18T10:32:03.503Z,22.01
2022-08-18T10:33:17.238Z,22.03
2022-08-18T10:34:16.862Z,22.05
2022-08-18T10:35:08.700Z,22.08
2022-08-18T10:36:11.036Z,22.1
2022-08-18T10:37:12.168Z,22.13
2022-08-18T10:38:13.899Z,22.15
2022-08-18T10:39:15.622Z,22.16
2022-08-18T10:40:18.514Z,22.2
2022-08-18T10:41:19.106Z,22.22
2022-08-18T10:42:20.844Z,22.25
2022-08-18T10:43:45.446Z,22.27
2022-08-18T10:44:29.107Z,22.3
2022-08-18T10:46:13.116Z,22.33
2022-08-18T10:46:50.791Z,22.36
2022-08-18T10:47:52.531Z,22.39
2022-08-18T10:48:54.169Z,22.4
2022-08-18T10:50:00.124Z,22.42
2022-08-18T10:51:07.742Z,22.44
2022-08-18T10:52:04.605Z,22.47
2022-08-18T10:54:23.352Z,22.52
2022-08-18T10:55:48.598Z,22.57
2022-08-18T10:56:27.559Z,22.6
2022-08-18T10:57:29.295Z,22.63
2022-08-18T10:58:31.168Z,22.65
2022-08-18T10:59:41.430Z,22.67
2022-08-18T11:00:34.542Z,22.7
2022-08-18T11:01:36.276Z,22.73
2022-08-18T11:02:37.976Z,22.76
2022-08-18T11:03:50.655Z,22.79
2022-08-18T11:04:41.461Z,22.82
2022-08-18T11:05:43.204Z,22.86
2022-08-18T11:08:16.818Z,22.95
2022-08-18T11:09:20.992Z,22.94
2022-08-18T11:10:30.404Z,22.96
2022-08-18T11:12:26.249Z,23.02
2022-08-18T11:13:27.778Z,23.03
2022-08-18T11:14:58.431Z,23.07
2022-08-18T11:16:00.029Z,23.08
2022-08-18T11:17:01.975Z,23.1
2022-08-18T11:18:04.380Z,23.12
2022-08-18T11:19:05.213Z,23.13
2022-08-18T11:20:06.988Z,23.16
2022-08-18T11:21:12.971Z,23.19
2022-08-18T11:22:41.345Z,23.2
2022-08-18T11:23:43.085Z,23.22
2022-08-18T11:24:44.807Z,23.23
2022-08-18T11:25:46.657Z,23.27
2022-08-18T11:26:52.843Z,23.31
2022-08-18T11:27:50.016Z,23.39
2022-08-18T11:28:51.761Z,23.41
2022-08-18T11:29:53.571Z,23.5
2022-08-18T11:30:55.536Z,23.56
2022-08-18T11:31:59.437Z,23.63
2022-08-18T11:32:59.477Z,23.71
2022-08-18T11:34:00.440Z,23.81
2022-08-18T11:35:02.159Z,23.9
2022-08-18T11:36:03.892Z,23.97
2022-08-18T11:37:08.950Z,24.03
2022-08-18T11:38:07.355Z,24.11
2022-08-18T11:39:09.229Z,24.21
2022-08-18T11:42:15.984Z,24.45
2022-08-18T11:43:16.220Z,24.51
2022-08-18T11:44:17.785Z,24.56
2022-08-18T11:45:19.735Z,24.61
2022-08-18T11:46:27.920Z,24.67
2022-08-18T11:47:27.456Z,24.73
2022-08-18T11:48:29.774Z,24.8
2022-08-18T11:49:26.880Z,24.86
2022-08-18T11:50:28.202Z,24.88
2022-08-18T11:51:29.921Z,24.92
2022-08-18T11:52:34.576Z,24.95
2022-08-18T11:53:33.378Z,24.97
2022-08-18T11:54:35.291Z,24.97
2022-08-18T11:55:36.921Z,24.98
2022-08-18T11:56:38.897Z,24.99
2022-08-18T11:57:46.342Z,25.02
2022-08-18T11:58:42.046Z,25.04
2022-08-18T11:59:55.178Z,25.06
2022-08-18T12:00:45.575Z,25.09
2022-08-18T12:01:47.283Z,25.09
2022-08-18T12:02:49.048Z,25.1
2022-08-18T12:03:51.160Z,25.11
2022-08-18T12:04:52.417Z,25.13
2022-08-18T12:05:56.192Z,25.16
2022-08-18T12:06:56.085Z,25.2
2022-08-18T12:07:58.082Z,25.23
2022-08-18T12:08:59.381Z,25.28
2022-08-18T12:10:18.073Z,25.33
2022-08-18T12:11:26.570Z,25.38
2022-08-18T12:12:04.586Z,25.44
2022-08-18T12:13:06.205Z,25.49
2022-08-18T12:14:31.898Z,25.52
2022-08-18T12:15:17.105Z,25.56
2022-08-18T12:16:11.404Z,25.58
2022-08-18T12:17:13.247Z,25.61
2022-08-18T12:18:25.948Z,25.67
2022-08-18T12:19:16.649Z,25.67
2022-08-18T12:20:18.346Z,25.7
2022-08-18T12:21:20.164Z,25.72
2022-08-18T12:22:21.938Z,25.74
2022-08-18T12:23:23.597Z,25.74
2022-08-18T12:24:26.236Z,25.73
2022-08-18T12:25:27.090Z,25.74
2022-08-18T12:26:38.629Z,25.75
2022-08-18T12:27:32.102Z,25.76
2022-08-18T12:28:32.354Z,25.78
2022-08-18T12:30:26.186Z,25.81
2022-08-18T12:31:28.886Z,25.82
2022-08-18T12:32:41.333Z,25.85
2022-08-18T12:33:47.866Z,25.89
2022-08-18T12:34:32.398Z,25.91
2022-08-18T12:35:33.322Z,25.92
2022-08-18T12:36:35.979Z,25.93
2022-08-18T12:37:58.500Z,25.93
2022-08-18T12:38:39.440Z,25.94
2022-08-18T12:39:41.151Z,25.95
2022-08-18T12:40:42.837Z,25.96
2022-08-18T12:41:44.651Z,25.98
2022-08-18T12:42:46.430Z,26
2022-08-18T12:43:58.889Z,26.03
2022-08-18T12:44:49.858Z,26.03
2022-08-18T12:46:04.228Z,26.05
2022-08-18T12:47:08.987Z,26.04
2022-08-18T12:48:51.256Z,25.9
2022-08-18T12:49:51.383Z,25.9
2022-08-18T12:50:59.974Z,25.78
2022-08-18T12:52:05.118Z,25.75
2022-08-18T12:53:09.093Z,25.69
2022-08-18T12:54:10.829Z,25.63
2022-08-18T12:57:10.502Z,25.46
2022-08-18T12:58:15.244Z,25.41
2022-08-18T12:59:52.690Z,25.36
2022-08-18T13:00:54.470Z,25.34
2022-08-18T13:03:38.013Z,25.3
2022-08-18T13:04:39.786Z,25.28
2022-08-18T13:05:41.577Z,25.27
2022-08-18T13:06:54.196Z,25.26
2022-08-18T13:08:33.722Z,25.26
2022-08-18T13:09:52.998Z,25.24
2022-08-18T13:10:47.295Z,25.25
2022-08-18T13:12:58.593Z,25.19
2022-08-18T13:14:00.268Z,25.18
2022-08-18T13:15:02.108Z,25.17
2022-08-18T13:16:04.742Z,25.16
2022-08-18T13:17:05.558Z,25.15
2022-08-18T13:18:14.296Z,25.15
2022-08-18T13:19:11.790Z,25.15
2022-08-18T13:20:13.818Z,25.11
2022-08-18T13:21:15.419Z,25.13
2022-08-18T13:22:17.070Z,25.13
2022-08-18T13:23:24.525Z,25.14
2022-08-18T13:25:07.367Z,25.13
2022-08-18T13:26:08.749Z,25.13
2022-08-18T13:27:18.429Z,25.14
2022-08-18T13:28:12.032Z,25.15
2022-08-18T13:29:13.838Z,25.17
2022-08-18T13:30:29.434Z,25.18
2022-08-18T13:31:17.259Z,25.19
2022-08-18T13:32:19.187Z,25.21
2022-08-18T13:33:34.485Z,25.22
2022-08-18T13:34:22.677Z,25.24
2022-08-18T13:35:24.507Z,25.26
2022-08-18T13:36:25.919Z,25.27
2022-08-18T13:37:27.650Z,25.27
2022-08-18T13:38:29.390Z,25.3
2022-08-18T13:39:34.429Z,25.29
2022-08-18T13:40:33.015Z,25.3
2022-08-18T13:41:34.727Z,25.3
2022-08-18T13:42:57.847Z,25.31
2022-08-18T13:43:39.179Z,25.3
2022-08-18T13:44:39.789Z,25.31